Terminal Aerodrome Forecast
Issued by NWS

Home | Current Version | Previous Version | Text Only | Print | Product List | Glossary On
Versions: 1 2 3 4 5 6 7 8 9 10 11 12
000
FTUS43 KBIS 231700
TAFDIK
TAF
KDIK 231740Z 2318/2418 30025G36KT 6SM -SN BKN015 OVC090
      TEMPO 2318/2320 4SM -SN SCT015 OVC025
     FM232200 30022G33KT P6SM SCT025 BKN040
     FM240100 31017KT P6SM BKN040
     FM240600 31015KT P6SM SCT090=

USA.gov is the U.S. government's official web portal to all federal, state and local government web resources and services.